Time;durP1;ratioP1;P1;durP2;ratioP2;P2;SDS_P1;SDS_P2;PMS_P1;PMS_P2;Temp;Humidity;BMP_temperature;BMP_pressure;BME280_temperature;BME280_humidity;BME280_pressure;Samples;Min_cycle;Max_cycle;Signal;HPM_P1;HPM_P2
2021/12/26 00:01:09;;;;;;;1.73;1.63;;;;;;;1.27;30.31;97789.22;5057425;28;20506;-65
2021/12/26 00:03:35;;;;;;;0.83;0.83;;;;;;;0.88;30.44;97790.34;5091890;28;20286;-66
2021/12/26 00:06:06;;;;;;;0.80;0.80;;;;;;;1.39;30.59;97777.59;5090462;28;20484;-66
2021/12/26 00:08:36;;;;;;;0.80;0.80;;;;;;;1.42;30.65;97759.00;5091762;28;20290;-67
2021/12/26 00:11:03;;;;;;;0.90;0.90;;;;;;;1.16;30.71;97768.50;5040159;28;20044;-67
2021/12/26 00:13:30;;;;;;;0.90;0.90;;;;;;;0.98;31.28;97709.31;5057069;28;20340;-65
2021/12/26 00:15:57;;;;;;;0.80;0.80;;;;;;;1.02;31.14;97768.13;5073516;28;20270;-65
2021/12/26 00:18:23;;;;;;;0.90;0.90;;;;;;;0.83;30.74;97769.03;5072911;28;20328;-66
2021/12/26 00:20:49;;;;;;;0.80;0.80;;;;;;;0.62;30.93;97738.88;5056332;28;20286;-66
2021/12/26 00:23:16;;;;;;;0.80;0.80;;;;;;;1.17;30.79;97772.75;5056356;28;20047;-66
2021/12/26 00:25:42;;;;;;;0.80;0.80;;;;;;;1.10;30.61;97778.69;5088562;28;20294;-66
2021/12/26 00:28:08;;;;;;;0.80;0.80;;;;;;;0.80;30.93;97773.75;5088989;28;20646;-69
2021/12/26 00:30:34;;;;;;;0.80;0.80;;;;;;;1.07;31.07;97776.38;5055791;28;20278;-66
2021/12/26 00:33:00;;;;;;;0.70;0.70;;;;;;;1.18;31.90;97750.88;5054638;28;20066;-66
2021/12/26 00:35:26;;;;;;;0.90;0.90;;;;;;;1.23;31.75;97725.09;5055797;28;20423;-67
2021/12/26 00:37:52;;;;;;;1.00;1.00;;;;;;;1.46;32.02;97749.88;5054937;28;20048;-67
2021/12/26 00:40:21;;;;;;;0.90;0.90;;;;;;;1.81;31.30;97719.47;5089170;28;20040;-66
2021/12/26 00:42:48;;;;;;;0.80;0.80;;;;;;;1.91;31.82;97755.06;5056319;28;20044;-66
2021/12/26 00:45:15;;;;;;;1.00;1.00;;;;;;;1.87;32.03;97750.28;5056098;28;20289;-66
2021/12/26 00:47:41;;;;;;;0.80;0.80;;;;;;;1.94;32.26;97759.19;5071952;28;20535;-67
2021/12/26 00:50:11;;;;;;;0.80;0.80;;;;;;;2.64;32.28;97767.75;5090426;28;20129;-66
2021/12/26 00:52:37;;;;;;;0.70;0.70;;;;;;;2.16;32.45;97767.41;5039094;28;20130;-67
2021/12/26 00:55:04;;;;;;;0.80;0.80;;;;;;;2.70;32.54;97751.41;5055722;28;20059;-66
2021/12/26 00:57:30;;;;;;;0.80;0.80;;;;;;;2.28;32.54;97754.88;5056137;28;20040;-66
2021/12/26 00:59:58;;;;;;;1.73;1.10;;;;;;;3.06;32.18;97765.22;5088672;28;20492;-66
2021/12/26 01:02:27;;;;;;;1.33;1.23;;;;;;;3.05;32.00;97742.56;5056257;28;20074;-66
2021/12/26 01:04:52;;;;;;;0.80;0.80;;;;;;;2.64;32.71;97741.56;5089588;28;20414;-66
2021/12/26 01:07:37;;;;;;;1.00;1.00;;;;;;;2.59;32.49;97750.84;5072561;28;20036;-66
2021/12/26 01:10:05;;;;;;;0.97;0.97;;;;;;;3.27;32.21;97727.13;5058296;28;20040;-68
2021/12/26 01:12:32;;;;;;;0.80;0.80;;;;;;;3.01;32.62;97726.31;5072739;28;20086;-66
2021/12/26 01:15:04;;;;;;;0.73;0.73;;;;;;;3.18;32.14;97722.78;5072407;28;20052;-66
2021/12/26 01:17:41;;;;;;;0.70;0.70;;;;;;;3.34;32.56;97688.75;5074382;28;20157;-66
2021/12/26 01:20:18;;;;;;;0.70;0.70;;;;;;;3.97;32.09;97722.31;5073272;28;20139;-67
2021/12/26 01:22:44;;;;;;;0.90;0.90;;;;;;;3.35;32.32;97727.13;5089251;28;20059;-66
2021/12/26 01:25:14;;;;;;;1.10;1.10;;;;;;;3.24;31.73;97719.53;5056893;28;20599;-66
2021/12/26 01:27:40;;;;;;;0.80;0.80;;;;;;;3.32;32.06;97722.19;5056202;28;20319;-66
2021/12/26 01:30:06;;;;;;;0.70;0.70;;;;;;;3.49;32.28;97715.19;5055748;28;20044;-66
2021/12/26 01:32:36;;;;;;;0.77;0.77;;;;;;;3.19;31.47;97726.25;5089999;28;20048;-66
2021/12/26 01:35:25;;;;;;;0.70;0.70;;;;;;;3.26;31.24;97727.25;5061879;28;20329;-67
2021/12/26 01:38:21;;;;;;;0.70;0.70;;;;;;;3.02;30.69;97704.38;5024005;28;20061;-65
2021/12/26 01:41:08;;;;;;;;;;;;;;;3.95;29.66;97732.16;5090174;28;20047;-66
2021/12/26 01:43:48;;;;;;;0.80;0.80;;;;;;;3.10;30.57;97728.03;5058356;28;19923;-66
2021/12/26 01:46:28;;;;;;;0.90;0.90;;;;;;;2.88;31.50;97725.97;5089263;28;20046;-67
2021/12/26 01:49:25;;;;;;;0.70;0.70;;;;;;;3.61;30.22;97728.84;5055558;28;20579;-65
2021/12/26 01:51:54;;;;;;;0.83;0.83;;;;;;;3.18;30.75;97722.78;5038048;28;20048;-65
2021/12/26 01:54:32;;;;;;;0.80;0.80;;;;;;;3.02;30.92;97722.75;5055800;28;20040;-65
2021/12/26 01:57:00;;;;;;;0.70;0.70;;;;;;;3.00;31.05;97737.81;5089389;28;20503;-65
2021/12/26 01:59:26;;;;;;;1.37;1.27;;;;;;;2.46;31.63;97703.28;5072223;28;20503;-66
2021/12/26 02:02:03;;;;;;;0.80;0.80;;;;;;;2.76;31.63;97734.25;5056633;28;20097;-65
2021/12/26 02:04:29;;;;;;;0.80;0.80;;;;;;;2.45;31.89;97747.00;5039673;28;20043;-65
2021/12/26 02:06:57;;;;;;;1.00;1.00;;;;;;;3.00;31.85;97724.69;5055788;28;20165;-66
2021/12/26 02:09:23;;;;;;;4.00;1.13;;;;;;;2.76;31.95;97763.06;5072796;28;20493;-65
2021/12/26 02:11:53;;;;;;;1.70;1.60;;;;;;;3.06;32.18;97724.06;5060324;28;20097;-64
2021/12/26 02:14:19;;;;;;;13.43;1.40;;;;;;;2.97;31.94;97727.63;5059339;28;20534;-65
2021/12/26 02:17:04;;;;;;;0.80;0.80;;;;;;;3.07;31.65;97741.47;5092903;28;20056;-63
2021/12/26 02:19:30;;;;;;;0.80;0.80;;;;;;;2.98;31.61;97718.78;5092612;28;20067;-65
2021/12/26 02:27:31;;;;;;;2.70;2.53;;;;;;;3.28;31.90;97697.28;5073758;28;20063;-64
2021/12/26 02:30:13;;;;;;;0.75;0.75;;;;;;;3.80;31.52;97686.53;5092313;28;20186;-64
2021/12/26 02:32:45;;;;;;;1.00;1.00;;;;;;;2.84;31.67;97653.88;5075152;28;20567;-65
2021/12/26 02:35:11;;;;;;;0.70;0.70;;;;;;;3.29;32.44;97704.16;5075483;28;20537;-63
2021/12/26 02:37:37;;;;;;;0.80;0.80;;;;;;;3.31;32.09;97702.19;5075352;28;20134;-64
2021/12/26 02:40:04;;;;;;;0.83;0.83;;;;;;;3.80;32.13;97699.66;5092013;28;20442;-64
2021/12/26 02:42:30;;;;;;;1.00;1.00;;;;;;;3.35;31.28;97708.75;5075210;28;20036;-63
2021/12/26 02:44:56;;;;;;;1.00;1.00;;;;;;;3.24;31.77;97695.94;5093168;28;20040;-63
2021/12/26 02:47:41;;;;;;;0.70;0.70;;;;;;;4.37;31.40;97701.28;5058375;28;20084;-65
2021/12/26 02:50:29;;;;;;;0.80;0.80;;;;;;;4.22;30.66;97710.81;5092169;28;20072;-64
2021/12/26 02:52:56;;;;;;;1.03;0.97;;;;;;;3.75;31.50;97697.53;5092853;28;20076;-64
2021/12/26 02:55:23;;;;;;;0.80;0.80;;;;;;;3.25;30.89;97696.75;5091606;28;20464;-64
2021/12/26 02:57:51;;;;;;;0.80;0.80;;;;;;;3.56;30.95;97717.97;5074719;28;20039;-62
2021/12/26 03:00:20;;;;;;;0.80;0.80;;;;;;;3.47;30.84;97701.41;5057823;28;20511;-63
2021/12/26 03:02:48;;;;;;;0.70;0.70;;;;;;;3.32;31.00;97731.88;5091162;28;20453;-64
2021/12/26 03:05:15;;;;;;;0.80;0.80;;;;;;;3.29;31.65;97693.66;5092610;28;20047;-63
2021/12/26 03:07:41;;;;;;;0.80;0.80;;;;;;;2.86;31.37;97675.47;5092481;28;20056;-65
2021/12/26 03:10:10;;;;;;;0.80;0.80;;;;;;;3.19;30.78;97686.91;5074699;28;20052;-65
2021/12/26 03:12:40;;;;;;;0.70;0.70;;;;;;;3.15;31.22;97696.88;5092861;28;20044;-64
2021/12/26 03:15:07;;;;;;;0.90;0.90;;;;;;;2.61;31.16;97673.75;5092826;28;20052;-62
2021/12/26 03:17:35;;;;;;;0.80;0.80;;;;;;;3.26;31.21;97690.53;5074330;28;20047;-64
2021/12/26 03:20:00;;;;;;;0.80;0.80;;;;;;;2.65;31.41;97685.53;5110326;28;20716;-65
2021/12/26 03:22:28;;;;;;;1.00;1.00;;;;;;;2.54;31.06;97705.94;5092322;28;20051;-64
2021/12/26 03:24:56;;;;;;;0.80;0.80;;;;;;;2.53;31.44;97689.41;5092834;28;20036;-63
2021/12/26 03:27:22;;;;;;;0.80;0.80;;;;;;;2.46;31.22;97684.97;5090959;28;20047;-64
2021/12/26 03:29:48;;;;;;;0.80;0.80;;;;;;;2.51;31.19;97701.00;5090847;28;20097;-64
2021/12/26 03:32:17;;;;;;;0.83;0.83;;;;;;;2.49;31.61;97674.16;5073971;28;20157;-65
2021/12/26 03:34:47;;;;;;;1.17;1.13;;;;;;;2.98;31.67;97671.59;5090855;28;20501;-65
2021/12/26 03:37:13;;;;;;;0.80;0.80;;;;;;;2.67;31.53;97685.38;5074041;28;20043;-65
2021/12/26 03:39:39;;;;;;;0.80;0.80;;;;;;;2.60;31.67;97702.72;5091006;28;20109;-65
2021/12/26 03:42:08;;;;;;;0.90;0.90;;;;;;;2.70;31.86;97670.19;5074410;28;20044;-65
2021/12/26 03:44:36;;;;;;;0.90;0.90;;;;;;;2.73;31.66;97690.00;5074216;28;20047;-65
2021/12/26 03:47:03;;;;;;;0.80;0.80;;;;;;;2.86;31.69;97682.53;5073745;28;20051;-64
2021/12/26 03:49:31;;;;;;;1.50;1.40;;;;;;;2.54;31.61;97705.94;5073757;28;20498;-64
2021/12/26 03:51:57;;;;;;;9.00;1.00;;;;;;;2.50;31.72;97687.09;5090453;28;20499;-64
2021/12/26 03:54:23;;;;;;;0.80;0.80;;;;;;;2.56;31.50;97680.41;5073533;28;20067;-65
2021/12/26 03:56:49;;;;;;;0.80;0.80;;;;;;;2.57;31.70;97698.59;5056993;28;20032;-65
2021/12/26 03:59:18;;;;;;;0.80;0.80;;;;;;;2.42;31.91;97702.78;5073242;28;20457;-65
2021/12/26 04:01:44;;;;;;;1.07;1.07;;;;;;;2.38;31.85;97692.75;5073578;28;20043;-65
2021/12/26 04:04:10;;;;;;;0.90;0.90;;;;;;;2.32;32.22;97683.69;5090498;28;20048;-65
2021/12/26 04:06:39;;;;;;;0.90;0.90;;;;;;;2.56;31.75;97686.47;5073035;28;20124;-65
2021/12/26 04:09:07;;;;;;;1.37;1.30;;;;;;;2.40;31.64;97678.50;5056391;28;20059;-64
2021/12/26 04:11:36;;;;;;;1.05;1.05;;;;;;;2.36;31.75;97679.81;5073769;28;20128;-65
2021/12/26 04:14:03;;;;;;;1.00;1.00;;;;;;;2.50;31.89;97681.03;5073065;28;20078;-64
2021/12/26 04:16:28;;;;;;;0.90;0.90;;;;;;;2.43;32.10;97641.53;5073004;28;20504;-65
2021/12/26 04:18:55;;;;;;;0.90;0.90;;;;;;;2.53;31.68;97663.22;5073233;28;20131;-65
2021/12/26 04:21:23;;;;;;;0.90;0.90;;;;;;;2.38;31.59;97675.25;5056605;28;20790;-65
2021/12/26 04:23:55;;;;;;;1.20;1.20;;;;;;;2.48;31.93;97657.63;5089964;28;20051;-64
2021/12/26 04:26:21;;;;;;;0.70;0.70;;;;;;;2.53;31.73;97659.75;5072918;28;20036;-65
2021/12/26 04:28:47;;;;;;;0.90;0.90;;;;;;;2.75;32.11;97664.47;5072820;28;20059;-65
2021/12/26 04:31:13;;;;;;;0.77;0.77;;;;;;;2.73;32.31;97651.53;5056338;28;20040;-65
2021/12/26 04:33:39;;;;;;;0.90;0.90;;;;;;;2.58;32.32;97649.66;5088723;28;20050;-65
2021/12/26 04:36:05;;;;;;;0.70;0.70;;;;;;;2.70;31.98;97646.59;5072645;28;20063;-64
2021/12/26 04:38:32;;;;;;;0.70;0.70;;;;;;;2.80;32.16;97656.94;5072074;28;20089;-65
2021/12/26 04:40:57;;;;;;;1.17;1.17;;;;;;;2.79;31.76;97658.75;5089206;28;20040;-63
2021/12/26 04:43:27;;;;;;;0.87;0.87;;;;;;;2.97;32.00;97641.13;5090498;28;20062;-63
2021/12/26 04:46:19;;;;;;;0.90;0.90;;;;;;;2.87;31.96;97637.00;5087199;28;20055;-63
2021/12/26 04:49:05;;;;;;;0.80;0.80;;;;;;;3.07;31.84;97649.69;5090589;28;20058;-63
2021/12/26 04:51:31;;;;;;;0.90;0.90;;;;;;;2.90;31.34;97641.91;5055829;28;20040;-64
2021/12/26 04:54:03;;;;;;;0.90;0.90;;;;;;;2.83;31.77;97604.22;5073120;28;20032;-63
2021/12/26 04:56:28;;;;;;;0.80;0.80;;;;;;;2.87;31.56;97656.16;5089178;28;20050;-64
2021/12/26 04:58:54;;;;;;;0.87;0.87;;;;;;;2.89;31.43;97656.81;5071784;28;20044;-64
2021/12/26 05:01:20;;;;;;;0.80;0.80;;;;;;;2.95;31.66;97660.63;5089998;28;20511;-65
2021/12/26 05:03:46;;;;;;;0.90;0.90;;;;;;;2.94;30.74;97680.75;5055062;28;20039;-72
2021/12/26 05:06:12;;;;;;;0.80;0.80;;;;;;;2.57;31.08;97661.91;5072515;28;20052;-63
2021/12/26 05:08:37;;;;;;;0.70;0.70;;;;;;;2.52;31.08;97690.38;5089140;28;20050;-63
2021/12/26 05:11:04;;;;;;;2.60;1.07;;;;;;;2.55;31.51;97699.75;5089591;28;20127;-63
2021/12/26 05:13:30;;;;;;;1.00;1.00;;;;;;;2.60;31.62;97697.47;5072102;28;20456;-64
2021/12/26 05:15:56;;;;;;;0.80;0.80;;;;;;;2.42;31.84;97684.44;5071987;28;20042;-64
2021/12/26 05:18:22;;;;;;;0.70;0.70;;;;;;;2.44;31.93;97669.41;5089977;28;20039;-64
2021/12/26 05:20:52;;;;;;;1.20;1.15;;;;;;;2.48;31.62;97683.81;5072817;28;20127;-63
2021/12/26 05:23:18;;;;;;;0.90;0.90;;;;;;;2.34;31.72;97671.28;5055043;28;20148;-64
2021/12/26 05:25:44;;;;;;;0.83;0.83;;;;;;;2.57;31.72;97672.41;5088975;28;20052;-63
2021/12/26 05:28:10;;;;;;;0.90;0.90;;;;;;;2.28;31.70;97674.53;5072059;28;20408;-63
2021/12/26 05:30:37;;;;;;;0.80;0.80;;;;;;;2.78;31.48;97685.91;5088780;28;20140;-64
2021/12/26 05:33:20;;;;;;;0.80;0.80;;;;;;;2.40;31.54;97670.66;5074500;28;20411;-64
2021/12/26 05:35:48;;;;;;;0.70;0.70;;;;;;;2.24;31.48;97681.06;5089018;28;20044;-72
2021/12/26 05:38:14;;;;;;;0.90;0.90;;;;;;;2.36;31.91;97664.09;5072315;28;20086;-64
2021/12/26 05:40:44;;;;;;;0.80;0.80;;;;;;;2.34;31.95;97676.53;5089024;28;20067;-65
2021/12/26 05:43:10;;;;;;;1.47;1.37;;;;;;;2.38;32.27;97645.63;5088770;28;20051;-65
2021/12/26 05:45:38;;;;;;;1.00;1.00;;;;;;;2.25;32.22;97639.97;5090865;28;20044;-65
2021/12/26 05:48:15;;;;;;;1.03;1.03;;;;;;;2.58;32.22;97686.31;5072254;28;20037;-68
2021/12/26 05:50:40;;;;;;;0.90;0.90;;;;;;;2.60;32.19;97692.25;5072536;28;20127;-66
2021/12/26 05:53:19;;;;;;;0.90;0.90;;;;;;;2.86;32.29;97678.09;5057266;28;20090;-69
2021/12/26 05:55:45;;;;;;;0.80;0.80;;;;;;;2.68;32.37;97687.84;5056075;28;20059;-65
2021/12/26 05:58:11;;;;;;;0.80;0.80;;;;;;;2.93;32.72;97673.88;5055233;28;20584;-64
2021/12/26 06:00:37;;;;;;;1.00;1.00;;;;;;;2.99;32.45;97675.88;5073317;28;20136;-66
2021/12/26 06:03:03;;;;;;;0.70;0.70;;;;;;;2.97;32.42;97677.00;5022544;28;20051;-67
2021/12/26 06:05:28;;;;;;;0.80;0.80;;;;;;;3.11;32.28;97645.75;5055368;28;20067;-69
2021/12/26 06:07:57;;;;;;;0.73;0.73;;;;;;;3.29;32.31;97659.56;5073489;28;20177;-67
2021/12/26 06:10:25;;;;;;;1.67;1.57;;;;;;;3.87;32.39;97653.38;5071873;28;20049;-68
2021/12/26 06:12:52;;;;;;;0.80;0.80;;;;;;;3.30;32.33;97666.47;5038823;28;20123;-68
2021/12/26 06:15:18;;;;;;;2.77;1.00;;;;;;;3.22;32.73;97639.38;5072096;28;20052;-66
2021/12/26 06:17:45;;;;;;;0.70;0.70;;;;;;;3.48;32.39;97676.81;5055490;28;20048;-67
2021/12/26 06:20:37;;;;;;;0.70;0.70;;;;;;;3.65;32.55;97680.28;5049696;28;20083;-67
2021/12/26 06:23:23;;;;;;;1.03;1.03;;;;;;;3.51;32.43;97679.09;5051907;28;20048;-66
2021/12/26 06:26:29;;;;;;;0.93;0.93;;;;;;;4.24;31.75;97657.16;5072773;28;20204;-68
2021/12/26 06:28:58;;;;;;;0.90;0.90;;;;;;;3.69;32.27;97663.22;5071788;28;20147;-66
2021/12/26 06:31:34;;;;;;;1.00;1.00;;;;;;;3.80;32.42;97618.28;5073010;28;20511;-68
2021/12/26 06:34:20;;;;;;;0.90;0.90;;;;;;;3.58;32.31;97668.78;5041017;28;20063;-67
2021/12/26 06:37:02;;;;;;;;;;;;;;;4.63;31.21;97655.41;5072922;28;20052;-67
2021/12/26 06:39:46;;;;;;;1.30;1.17;;;;;;;3.63;32.30;97675.19;5072638;28;19920;-67
2021/12/26 06:42:32;;;;;;;1.10;1.10;;;;;;;3.57;32.55;97646.16;5071500;28;20715;-69
2021/12/26 06:45:18;;;;;;;0.70;0.70;;;;;;;3.92;32.35;97645.84;5057369;28;20044;-66
2021/12/26 06:48:03;;;;;;;2.30;1.00;;;;;;;3.75;32.46;97652.91;5072744;28;20101;-68
2021/12/26 06:50:29;;;;;;;1.20;1.20;;;;;;;3.05;32.49;97551.16;5067645;28;20052;-67
2021/12/26 06:52:55;;;;;;;1.20;1.20;;;;;;;3.56;32.63;97647.97;5066984;28;20040;-67
2021/12/26 06:55:21;;;;;;;0.80;0.80;;;;;;;3.76;32.50;97653.72;5068542;28;20106;-67
2021/12/26 06:57:46;;;;;;;1.03;1.03;;;;;;;3.91;32.84;97647.63;5082839;28;20515;-67
2021/12/26 07:00:15;;;;;;;0.80;0.80;;;;;;;4.32;32.79;97609.81;5068244;28;20989;-66
2021/12/26 07:02:42;;;;;;;1.20;1.03;;;;;;;4.33;32.89;97618.53;5066958;28;20596;-66
2021/12/26 07:05:11;;;;;;;0.80;0.80;;;;;;;4.37;33.06;97651.34;5051998;28;20097;-68
2021/12/26 07:07:55;;;;;;;0.90;0.90;;;;;;;4.14;32.64;97639.91;5071212;28;20040;-67
2021/12/26 07:10:21;;;;;;;0.77;0.77;;;;;;;4.24;32.71;97661.56;5071483;28;20059;-67
2021/12/26 07:12:47;;;;;;;0.97;0.97;;;;;;;4.26;32.55;97656.97;5071011;28;20049;-70
2021/12/26 07:15:29;;;;;;;0.70;0.70;;;;;;;4.30;32.61;97629.38;5070645;28;20064;-66
2021/12/26 07:17:58;;;;;;;0.80;0.80;;;;;;;4.33;32.63;97645.63;5054983;28;20056;-68
2021/12/26 07:20:27;;;;;;;1.40;1.30;;;;;;;4.36;32.76;97616.38;5070964;28;20074;-66
2021/12/26 07:23:12;;;;;;;1.90;1.20;;;;;;;4.30;32.40;97606.56;5063839;28;20048;-66
2021/12/26 07:25:41;;;;;;;0.90;0.90;;;;;;;4.40;32.72;97624.72;5070384;28;20048;-66
2021/12/26 07:28:07;;;;;;;0.90;0.90;;;;;;;4.47;32.73;97636.22;5070351;28;20056;-66
2021/12/26 07:30:51;;;;;;;0.70;0.70;;;;;;;4.46;32.56;97626.72;5070812;28;20051;-66
2021/12/26 07:33:17;;;;;;;0.87;0.87;;;;;;;4.43;32.44;97651.50;5071769;28;20131;-66
2021/12/26 07:35:46;;;;;;;1.07;1.07;;;;;;;4.26;32.36;97571.09;5070536;28;20055;-69
2021/12/26 07:38:30;;;;;;;0.90;0.90;;;;;;;4.65;32.38;97637.66;5055979;28;20595;-70
2021/12/26 07:40:56;;;;;;;0.97;0.97;;;;;;;4.65;32.22;97642.91;5070409;28;20040;-69
2021/12/26 07:43:32;;;;;;;1.00;1.00;;;;;;;4.56;32.21;97606.31;5070160;28;20139;-70
2021/12/26 07:46:26;;;;;;;0.90;0.90;;;;;;;4.61;32.69;97622.38;5051372;28;20056;-70
2021/12/26 07:48:56;;;;;;;0.70;0.70;;;;;;;4.71;32.51;97633.50;5053229;28;20055;-66
2021/12/26 07:51:40;;;;;;;1.20;1.10;;;;;;;4.83;32.39;97629.50;5071055;28;20392;-69
2021/12/26 07:54:25;;;;;;;1.63;1.47;;;;;;;5.23;32.45;97595.09;5071226;28;20056;-67
2021/12/26 07:57:10;;;;;;;0.90;0.90;;;;;;;4.89;32.25;97615.69;5071276;28;20501;-71
2021/12/26 07:59:54;;;;;;;0.70;0.70;;;;;;;4.77;32.19;97603.91;5071082;28;20048;-67
2021/12/26 08:02:38;;;;;;;0.70;0.70;;;;;;;4.67;32.20;97593.63;5071000;28;20048;-70
2021/12/26 08:05:23;;;;;;;0.90;0.90;;;;;;;4.86;32.50;97592.34;5071411;28;20438;-70
2021/12/26 08:08:02;;;;;;;0.80;0.80;;;;;;;5.15;32.30;97605.72;5069438;28;20048;-70
2021/12/26 08:10:31;;;;;;;1.98;1.55;;;;;;;4.90;32.69;97619.97;5053588;28;20415;-70
2021/12/26 08:12:57;;;;;;;0.70;0.70;;;;;;;4.85;32.41;97598.63;5069709;28;20037;-68
2021/12/26 08:15:23;;;;;;;1.57;1.47;;;;;;;4.85;32.58;97570.53;5069780;28;20527;-69
2021/12/26 08:17:48;;;;;;;0.80;0.80;;;;;;;4.84;32.37;97604.88;5071374;28;20040;-68
2021/12/26 08:20:14;;;;;;;0.70;0.70;;;;;;;4.88;32.80;97551.75;5071047;28;20043;-67
2021/12/26 08:22:51;;;;;;;0.70;0.70;;;;;;;4.79;32.93;97567.75;5071517;28;20056;-67
2021/12/26 08:25:17;;;;;;;1.03;1.03;;;;;;;4.94;32.74;97566.03;5069870;28;20032;-66
2021/12/26 08:27:43;;;;;;;17.40;1.23;;;;;;;5.04;32.68;97561.38;5053315;28;20048;-67
2021/12/26 08:30:09;;;;;;;1.47;1.13;;;;;;;5.25;32.67;97564.19;5053001;28;20135;-70
2021/12/26 08:32:39;;;;;;;0.70;0.70;;;;;;;4.86;32.59;97516.94;5070823;28;20052;-66
2021/12/26 08:35:07;;;;;;;0.90;0.90;;;;;;;5.57;32.82;97549.94;5053635;28;20044;-70
2021/12/26 08:37:33;;;;;;;0.80;0.80;;;;;;;5.25;32.51;97582.59;5070761;28;20045;-69
2021/12/26 08:39:59;;;;;;;1.07;0.90;;;;;;;5.04;32.69;97538.50;5053329;28;20040;-66
2021/12/26 08:42:25;;;;;;;1.10;1.00;;;;;;;5.11;32.79;97526.31;5053137;28;20549;-66
2021/12/26 08:44:52;;;;;;;1.03;1.03;;;;;;;5.49;32.61;97548.19;5053010;28;20048;-67
2021/12/26 08:47:18;;;;;;;1.30;1.30;;;;;;;5.47;32.48;97539.69;5069467;28;20048;-66
2021/12/26 08:49:46;;;;;;;0.60;0.60;;;;;;;5.18;32.45;97548.28;5053215;28;20867;-70
2021/12/26 08:52:12;;;;;;;0.70;0.70;;;;;;;5.21;32.94;97533.97;5069363;28;20076;-68
2021/12/26 08:54:41;;;;;;;0.67;0.67;;;;;;;5.58;32.87;97541.06;5069484;28;20046;-69
2021/12/26 08:57:07;;;;;;;0.77;0.77;;;;;;;5.66;32.80;97547.06;5070427;28;20040;-69
2021/12/26 08:59:34;;;;;;;0.60;0.60;;;;;;;5.54;32.51;97545.88;5070469;28;20076;-69
2021/12/26 09:02:04;;;;;;;0.70;0.70;;;;;;;5.82;32.80;97538.25;5070515;28;20036;-70
2021/12/26 09:04:30;;;;;;;0.65;0.65;;;;;;;5.44;32.71;97541.84;5068848;28;20044;-73
2021/12/26 09:06:56;;;;;;;1.63;1.53;;;;;;;5.73;32.89;97526.94;5049791;28;20043;-71
2021/12/26 09:09:22;;;;;;;0.70;0.70;;;;;;;5.53;32.68;97531.06;5023100;28;20127;-71
2021/12/26 09:11:48;;;;;;;0.70;0.70;;;;;;;5.58;32.15;97541.88;5068729;28;20147;-75
2021/12/26 09:14:14;;;;;;;0.90;0.90;;;;;;;5.44;32.65;97545.31;5069934;28;20091;-73
2021/12/26 09:16:40;;;;;;;0.80;0.80;;;;;;;5.47;32.62;97487.03;5068475;28;20047;-70
2021/12/26 09:19:07;;;;;;;0.97;0.97;;;;;;;5.78;32.77;97507.97;5034368;28;20047;-66
2021/12/26 09:21:33;;;;;;;0.70;0.70;;;;;;;5.58;32.63;97515.53;5069745;28;20051;-68
2021/12/26 09:23:58;;;;;;;0.80;0.80;;;;;;;5.45;32.81;97511.88;5068270;28;20032;-67
2021/12/26 09:26:24;;;;;;;0.97;0.97;;;;;;;5.60;32.54;97518.81;5050223;28;20052;-72
2021/12/26 09:28:50;;;;;;;0.93;0.93;;;;;;;5.77;32.80;97503.69;5066081;28;20408;-70
2021/12/26 09:31:16;;;;;;;0.80;0.80;;;;;;;5.72;32.83;97514.75;5066576;28;20044;-68
2021/12/26 09:33:42;;;;;;;0.80;0.80;;;;;;;5.64;32.64;97551.72;5068320;28;20052;-67
2021/12/26 09:36:08;;;;;;;1.23;1.00;;;;;;;5.63;32.54;97510.56;5067763;28;20036;-71
2021/12/26 09:38:34;;;;;;;0.90;0.90;;;;;;;5.64;32.63;97527.19;5066702;28;20416;-73
2021/12/26 09:40:59;;;;;;;1.03;0.90;;;;;;;5.62;32.56;97510.75;5070382;28;20040;-68
2021/12/26 09:43:26;;;;;;;0.80;0.80;;;;;;;5.98;32.50;97486.19;5069132;28;20120;-68
2021/12/26 09:45:52;;;;;;;1.50;1.40;;;;;;;5.78;32.42;97477.16;5068765;28;20616;-68
2021/12/26 09:48:18;;;;;;;0.70;0.70;;;;;;;5.94;32.48;97507.81;5068849;28;20053;-67
2021/12/26 09:50:44;;;;;;;0.90;0.90;;;;;;;5.67;32.65;97509.22;5070636;28;20136;-69
2021/12/26 09:53:10;;;;;;;0.60;0.60;;;;;;;5.73;32.72;97507.69;5073855;28;20042;-68
2021/12/26 09:55:36;;;;;;;0.80;0.80;;;;;;;5.47;32.57;97455.44;5089462;28;20066;-69
2021/12/26 09:58:02;;;;;;;0.80;0.80;;;;;;;5.65;32.35;97513.84;5089661;28;20487;-69
2021/12/26 10:00:34;;;;;;;1.73;1.57;;;;;;;6.37;32.56;97472.72;5087678;28;20058;-68
2021/12/26 10:03:12;;;;;;;0.70;0.70;;;;;;;6.54;32.18;97506.63;5084548;28;20035;-69
2021/12/26 10:06:03;;;;;;;1.03;1.03;;;;;;;6.57;31.88;97508.91;5070150;28;20121;-65
2021/12/26 10:08:31;;;;;;;0.60;0.60;;;;;;;6.30;32.52;97499.03;5084445;28;20045;-66
2021/12/26 10:11:09;;;;;;;0.70;0.70;;;;;;;6.62;32.05;97489.88;5070600;28;20052;-66
2021/12/26 10:13:41;;;;;;;0.73;0.73;;;;;;;5.95;32.17;97398.84;5069879;28;20044;-67
2021/12/26 10:16:07;;;;;;;0.70;0.70;;;;;;;5.84;32.46;97479.13;5087730;28;20055;-66
2021/12/26 10:18:39;;;;;;;0.70;0.70;;;;;;;5.86;32.54;97495.56;5052138;28;20045;-66
2021/12/26 10:21:26;;;;;;;0.80;0.80;;;;;;;6.86;32.04;97473.69;5051134;28;20040;-66
2021/12/26 10:23:54;;;;;;;1.03;1.03;;;;;;;6.36;32.53;97447.38;5058969;28;20369;-66
2021/12/26 10:26:25;;;;;;;1.53;1.43;;;;;;;6.39;32.54;97462.81;5083395;28;20040;-65
2021/12/26 10:29:06;;;;;;;0.80;0.80;;;;;;;6.53;32.06;97417.97;5066455;28;20040;-66
2021/12/26 10:31:32;;;;;;;0.70;0.70;;;;;;;6.12;32.53;97437.97;5085619;28;20060;-66
2021/12/26 10:33:58;;;;;;;0.70;0.70;;;;;;;5.76;32.49;97410.72;5090832;28;20274;-65
2021/12/26 10:36:43;;;;;;;0.80;0.80;;;;;;;6.82;32.28;97465.38;5058568;28;20036;-66
2021/12/26 10:39:17;;;;;;;0.70;0.70;;;;;;;6.66;32.30;97431.31;5073280;28;20415;-65
2021/12/26 10:41:46;;;;;;;0.93;0.93;;;;;;;6.72;32.16;97464.84;5069733;28;20036;-68
2021/12/26 10:44:22;;;;;;;0.70;0.70;;;;;;;6.85;32.02;97459.72;5073608;28;20067;-66
2021/12/26 10:46:50;;;;;;;0.70;0.70;;;;;;;6.48;32.18;97464.34;5071051;28;20403;-66
2021/12/26 10:49:28;;;;;;;0.80;0.80;;;;;;;6.81;31.60;97468.19;5089964;28;20041;-66
2021/12/26 10:51:54;;;;;;;0.87;0.87;;;;;;;5.95;32.47;97446.25;5093450;28;20048;-67
2021/12/26 10:54:25;;;;;;;0.60;0.60;;;;;;;6.19;32.27;97425.69;5056289;28;20143;-66
2021/12/26 10:57:17;;;;;;;0.80;0.80;;;;;;;6.76;31.78;97455.53;5057279;28;20035;-66
2021/12/26 10:59:44;;;;;;;1.10;1.10;;;;;;;6.00;32.37;97438.59;5086084;28;20040;-65
2021/12/26 11:02:10;;;;;;;0.60;0.60;;;;;;;6.05;32.47;97444.97;5088895;28;20097;-67
2021/12/26 11:04:38;;;;;;;1.00;1.00;;;;;;;5.85;32.53;97436.00;5107084;28;20040;-66
2021/12/26 11:07:08;;;;;;;0.60;0.60;;;;;;;6.34;32.27;97433.56;5081267;28;20123;-66
2021/12/26 11:09:35;;;;;;;0.60;0.60;;;;;;;5.88;32.39;97435.63;5072768;28;20118;-66
2021/12/26 11:12:10;;;;;;;1.00;1.00;;;;;;;6.35;32.21;97453.66;5091013;28;20044;-66
2021/12/26 11:14:58;;;;;;;0.70;0.70;;;;;;;6.55;31.89;97425.72;5084934;28;20125;-66
2021/12/26 11:17:33;;;;;;;3.00;1.30;;;;;;;6.38;32.08;97433.00;5054330;28;20051;-65
2021/12/26 11:19:59;;;;;;;0.80;0.80;;;;;;;5.36;32.46;97386.63;5086057;28;20062;-66
2021/12/26 11:22:26;;;;;;;0.67;0.67;;;;;;;5.84;32.60;97439.63;5088485;28;20507;-65
2021/12/26 11:24:53;;;;;;;0.90;0.90;;;;;;;6.00;32.76;97455.22;5089050;28;20672;-66
2021/12/26 11:27:24;;;;;;;0.93;0.93;;;;;;;5.85;32.89;97427.25;5089682;28;20048;-66
2021/12/26 11:29:52;;;;;;;0.95;0.88;;;;;;;5.48;32.74;97443.09;5089027;28;20032;-66
2021/12/26 11:32:19;;;;;;;1.00;1.00;;;;;;;5.98;32.72;97445.88;5085562;28;20040;-66
2021/12/26 11:34:47;;;;;;;0.90;0.90;;;;;;;6.10;32.75;97429.44;5086918;28;20082;-66
2021/12/26 11:37:13;;;;;;;0.87;0.87;;;;;;;5.65;33.19;97418.22;5053060;28;20040;-66
2021/12/26 11:39:55;;;;;;;1.00;1.00;;;;;;;5.89;32.65;97394.31;5073018;28;20056;-66
2021/12/26 11:43:11;;;;;;;0.80;0.80;;;;;;;6.48;32.23;97412.44;5069574;28;20127;-66
2021/12/26 11:46:01;;;;;;;1.30;1.00;;;;;;;5.88;32.86;97404.03;5102126;28;20404;-66
2021/12/26 11:48:55;;;;;;;1.50;0.90;;;;;;;6.52;32.63;97418.16;5103249;28;20063;-66
2021/12/26 11:52:18;;;;;;;1.00;1.00;;;;;;;5.83;33.06;97398.47;5048253;28;20055;-67
2021/12/26 11:55:03;;;;;;;0.60;0.60;;;;;;;6.52;32.87;97387.34;5031293;28;20104;-66
2021/12/26 11:57:54;;;;;;;1.00;1.00;;;;;;;6.71;32.81;97399.91;5072399;28;20044;-67
2021/12/26 12:00:50;;;;;;;0.70;0.70;;;;;;;6.90;32.35;97374.72;5072141;28;20036;-66
2021/12/26 12:03:25;;;;;;;0.83;0.83;;;;;;;6.81;32.52;97392.50;5084177;28;20404;-66
2021/12/26 12:05:52;;;;;;;0.63;0.63;;;;;;;6.35;32.79;97372.75;5065862;28;20040;-65